Time;durP1;ratioP1;P1;durP2;ratioP2;P2;SDS_P1;SDS_P2;PMS_P1;PMS_P2;Temp;Humidity;BMP_temperature;BMP_pressure;BME280_temperature;BME280_humidity;BME280_pressure;Samples;Min_cycle;Max_cycle;Signal;HPM_P1;HPM_P2
2022/01/29 00:00:19;;;;;;;;;41.25;35.50;;;;;6.10;55.69;101471.59;146598;699;46009;-71
2022/01/29 00:03:11;;;;;;;;;50.75;41.00;;;;;6.11;56.13;101473.41;146596;569;46010;-71
2022/01/29 00:06:04;;;;;;;;;38.00;32.50;;;;;6.07;57.30;101464.50;146600;584;46008;-70
2022/01/29 00:08:57;;;;;;;;;63.00;46.75;;;;;5.99;57.24;101463.91;146597;567;47010;-71
2022/01/29 00:11:49;;;;;;;;;27.50;23.50;;;;;5.95;57.09;101468.66;146600;722;46020;-72
2022/01/29 00:14:42;;;;;;;;;36.75;34.25;;;;;5.90;57.29;101465.69;146594;608;47010;-72
2022/01/29 00:17:33;;;;;;;;;37.75;33.25;;;;;5.82;58.54;101453.87;146600;628;46008;-70
2022/01/29 00:20:26;;;;;;;;;19.75;18.50;;;;;5.78;58.08;101444.09;146597;568;46016;-70
2022/01/29 00:23:18;;;;;;;;;15.50;14.25;;;;;5.76;56.69;101441.44;146599;582;47008;-70
2022/01/29 00:26:11;;;;;;;;;29.50;27.00;;;;;5.78;56.95;101442.44;146597;595;46016;-70
2022/01/29 00:29:10;;;;;;;;;17.50;16.50;;;;;5.79;57.25;101445.91;146600;608;46008;-69
2022/01/29 00:32:02;;;;;;;;;15.25;12.00;;;;;5.81;57.43;101448.62;146595;569;46016;-70
2022/01/29 00:34:54;;;;;;;;;20.00;17.25;;;;;5.77;57.92;101448.38;146600;564;47008;-71
2022/01/29 00:37:46;;;;;;;;;19.00;17.50;;;;;5.81;57.27;101446.94;146596;583;46016;-71
2022/01/29 00:40:39;;;;;;;;;20.75;17.75;;;;;5.87;57.25;101455.16;146599;599;46008;-72
2022/01/29 00:43:31;;;;;;;;;17.75;16.75;;;;;5.93;56.75;101463.41;146598;571;46917;-72
2022/01/29 00:46:23;;;;;;;;;22.00;17.00;;;;;5.99;56.29;101457.88;146606;643;46008;-72
2022/01/29 00:49:17;;;;;;;;;38.50;35.00;;;;;6.08;56.58;101465.44;146601;657;47012;-72
2022/01/29 00:52:10;;;;;;;;;46.75;37.00;;;;;6.13;56.44;101459.88;146607;687;46021;-73
2022/01/29 00:55:02;;;;;;;;;46.25;39.25;;;;;6.16;57.41;101454.97;146603;704;46029;-72
2022/01/29 00:57:55;;;;;;;;;42.00;35.00;;;;;6.16;56.81;101456.66;146608;590;46008;-72
2022/01/29 01:00:47;;;;;;;;;43.75;36.50;;;;;6.19;55.36;101460.34;146603;565;46016;-74
2022/01/29 01:03:39;;;;;;;;;47.25;37.75;;;;;6.23;57.29;101448.62;146605;697;46008;-73
2022/01/29 01:06:31;;;;;;;;;42.25;36.50;;;;;6.20;57.91;101453.56;146604;623;46011;-72
2022/01/29 01:09:24;;;;;;;;;39.50;33.75;;;;;6.12;59.05;101447.78;146609;578;46008;-71
2022/01/29 01:12:16;;;;;;;;;33.75;31.00;;;;;6.07;58.66;101453.31;146604;633;46016;-72
2022/01/29 01:15:09;;;;;;;;;35.25;30.50;;;;;6.03;60.35;101448.72;146601;576;47008;-72
2022/01/29 01:18:02;;;;;;;;;32.75;30.25;;;;;6.01;60.67;101449.50;146602;566;46917;-71
2022/01/29 01:20:54;;;;;;;;;33.25;29.00;;;;;6.06;60.79;101447.28;146604;619;46008;-71
2022/01/29 01:23:46;;;;;;;;;48.50;37.75;;;;;6.11;59.25;101432.22;146604;631;46917;-71
2022/01/29 01:26:41;;;;;;;;;30.50;28.25;;;;;6.14;61.48;101429.91;146607;683;45020;-71
2022/01/29 01:29:33;;;;;;;;;25.50;22.50;;;;;6.13;59.65;101426.37;146598;604;46017;-71
2022/01/29 01:32:25;;;;;;;;;30.50;28.75;;;;;6.13;59.23;101417.78;146601;785;46008;-72
2022/01/29 01:35:23;;;;;;;;;26.75;25.00;;;;;6.13;59.83;101420.34;146602;581;46017;-72
2022/01/29 01:38:20;;;;;;;;;29.00;26.50;;;;;6.11;58.78;101420.25;146607;563;45021;-71
2022/01/29 01:41:16;;;;;;;;;22.50;22.50;;;;;6.13;57.86;101420.34;146597;591;47917;-71
2022/01/29 01:44:09;;;;;;;;;29.75;21.25;;;;;6.13;57.53;101417.78;146604;599;47012;-71
2022/01/29 01:47:01;;;;;;;;;33.25;31.75;;;;;6.14;59.01;101404.16;146606;600;46010;-72
2022/01/29 01:49:53;;;;;;;;;36.00;32.75;;;;;6.10;60.71;101396.94;146602;575;46020;-72
2022/01/29 01:52:46;;;;;;;;;26.50;23.50;;;;;6.10;59.96;101408.12;146601;752;46010;-71
2022/01/29 01:55:38;;;;;;;;;23.00;21.00;;;;;6.06;61.98;101408.66;146605;569;46020;-71
2022/01/29 01:58:31;;;;;;;;;20.00;16.50;;;;;6.00;62.58;101410.75;146604;566;46918;-71
2022/01/29 02:01:23;;;;;;;;;26.25;23.00;;;;;5.96;62.97;101406.13;146604;651;46020;-71
2022/01/29 02:04:15;;;;;;;;;27.75;25.50;;;;;5.92;62.90;101401.47;146602;586;46012;-70
2022/01/29 02:07:08;;;;;;;;;20.75;19.50;;;;;5.90;60.84;101400.47;146606;606;46021;-70
2022/01/29 02:10:01;;;;;;;;;18.25;16.00;;;;;5.89;60.82;101394.41;146602;577;46917;-71
2022/01/29 02:12:58;;;;;;;;;19.50;15.50;;;;;5.94;61.16;101397.38;146605;615;46021;-71
2022/01/29 02:15:50;;;;;;;;;21.25;19.25;;;;;5.99;58.77;101383.22;146601;646;46016;-71
2022/01/29 02:18:42;;;;;;;;;19.25;16.75;;;;;6.10;58.61;101391.78;146604;569;46032;-70
2022/01/29 02:21:34;;;;;;;;;20.25;17.25;;;;;5.01;58.37;101174.69;146601;767;46017;-71
2022/01/29 02:24:27;;;;;;;;;24.00;19.25;;;;;6.26;58.62;101384.47;146605;620;46020;-72
2022/01/29 02:27:19;;;;;;;;;21.50;16.75;;;;;6.27;58.34;101381.16;146602;565;46917;-70
2022/01/29 02:30:12;;;;;;;;;23.50;22.50;;;;;6.25;62.04;101382.69;146605;596;46008;-70
2022/01/29 02:33:08;;;;;;;;;29.50;27.00;;;;;6.21;60.70;101384.12;146601;590;47010;-69
2022/01/29 02:36:02;;;;;;;;;34.00;29.50;;;;;6.19;59.10;101387.38;146602;642;46021;-70
2022/01/29 02:38:54;;;;;;;;;33.25;26.50;;;;;6.19;58.71;101383.09;146600;583;46016;-71
2022/01/29 02:41:47;;;;;;;;;22.50;18.25;;;;;6.17;60.39;101381.22;146602;601;46020;-71
2022/01/29 02:44:39;;;;;;;;;23.00;21.75;;;;;6.11;63.52;101384.19;146602;611;46017;-70
2022/01/29 02:47:33;;;;;;;;;24.25;21.25;;;;;6.03;64.24;101374.06;146606;588;46020;-74
2022/01/29 02:50:25;;;;;;;;;36.50;30.50;;;;;5.91;65.20;101366.22;146601;615;47010;-73
2022/01/29 02:53:17;;;;;;;;;29.25;24.50;;;;;5.79;65.75;101364.47;146605;577;46008;-72
2022/01/29 02:56:09;;;;;;;;;24.75;23.25;;;;;5.75;63.88;101374.38;146601;629;46016;-72
2022/01/29 02:59:01;;;;;;;;;29.00;25.25;;;;;5.77;63.01;101381.47;146602;570;46020;-74
2022/01/29 03:01:53;;;;;;;;;24.25;20.00;;;;;5.83;62.19;101375.91;146602;606;46016;-73
2022/01/29 03:04:46;;;;;;;;;28.50;25.25;;;;;5.92;60.98;101379.22;146605;620;47008;-73
2022/01/29 03:07:38;;;;;;;;;28.00;25.00;;;;;6.02;60.54;101383.47;146597;591;47010;-72
2022/01/29 03:10:30;;;;;;;;;23.50;21.25;;;;;6.13;59.59;101379.16;146604;616;46020;-72
2022/01/29 03:13:23;;;;;;;;;23.50;22.50;;;;;6.24;61.49;101378.34;146601;629;46918;-72
2022/01/29 03:16:15;;;;;;;;;31.00;29.75;;;;;6.31;59.58;101382.28;146604;594;46020;-72
2022/01/29 03:19:07;;;;;;;;;28.75;24.50;;;;;6.34;59.72;101382.53;146604;610;46013;-71
2022/01/29 03:21:59;;;;;;;;;72.50;55.75;;;;;6.35;62.59;101379.16;146606;644;46008;-72
2022/01/29 03:24:52;;;;;;;;;32.50;28.00;;;;;6.32;62.43;101381.50;146603;569;45917;-76
2022/01/29 03:27:44;;;;;;;;;31.25;25.25;;;;;6.29;61.31;101386.41;146605;592;46012;-75
2022/01/29 03:30:36;;;;;;;;;30.25;26.50;;;;;6.28;60.67;101392.34;146601;590;46016;-75
2022/01/29 03:33:29;;;;;;;;;26.25;24.25;;;;;6.28;60.11;101390.66;146605;591;46021;-75
2022/01/29 03:36:21;;;;;;;;;16.50;13.25;;;;;6.34;56.87;101390.25;146600;576;47010;-75
2022/01/29 03:39:13;;;;;;;;;16.00;13.00;;;;;6.53;56.60;101390.91;146604;592;46020;-77
2022/01/29 03:42:08;;;;;;;;;25.25;22.25;;;;;6.75;59.13;101397.72;146602;606;46012;-72
2022/01/29 03:45:00;;;;;;;;;26.50;25.25;;;;;6.03;60.64;101261.69;146608;578;45020;-72
2022/01/29 03:47:53;;;;;;;;;31.25;25.25;;;;;6.82;59.73;101392.25;146601;580;46016;-72
2022/01/29 03:50:45;;;;;;;;;20.25;20.25;;;;;6.76;58.84;101390.13;146605;593;47008;-72
2022/01/29 03:53:37;;;;;;;;;18.25;16.25;;;;;6.79;55.70;101385.22;146599;570;46016;-75
2022/01/29 03:56:30;;;;;;;;;10.25;10.00;;;;;6.88;52.61;101378.16;146603;612;46021;-75
2022/01/29 03:59:22;;;;;;;;;9.00;6.50;;;;;7.03;51.18;101369.78;146599;589;46016;-75
2022/01/29 04:02:14;;;;;;;;;4.50;4.00;;;;;7.17;50.29;101364.91;146604;599;46020;-74
2022/01/29 04:05:07;;;;;;;;;3.00;3.00;;;;;7.31;47.71;101372.75;146604;585;46010;-71
2022/01/29 04:07:59;;;;;;;;;9.75;7.75;;;;;7.44;50.19;101382.31;146605;624;46008;-73
2022/01/29 04:10:52;;;;;;;;;7.00;5.25;;;;;7.56;47.04;101378.06;146604;596;46026;-71
2022/01/29 04:13:48;;;;;;;;;3.75;3.00;;;;;7.67;46.04;101371.12;146603;569;47008;-70
2022/01/29 04:16:40;;;;;;;;;6.00;4.00;;;;;7.73;45.97;101375.03;146602;618;46024;-70
2022/01/29 04:19:32;;;;;;;;;7.25;6.25;;;;;7.81;47.32;101385.91;146605;593;46008;-70
2022/01/29 04:22:25;;;;;;;;;9.75;9.75;;;;;7.87;49.30;101405.31;146601;591;46016;-72
2022/01/29 04:25:16;;;;;;;;;10.75;9.00;;;;;7.95;48.95;101392.09;146604;662;47013;-72
2022/01/29 04:28:11;;;;;;;;;8.75;8.75;;;;;8.03;48.99;101420.25;146600;563;46918;-71
2022/01/29 04:31:18;;;;;;;;;8.25;6.25;;;;;8.08;47.60;101415.41;146607;611;46020;-72
2022/01/29 04:34:10;;;;;;;;;5.25;3.00;;;;;8.12;46.08;101422.59;146602;586;46033;-71
2022/01/29 04:37:02;;;;;;;;;4.00;4.00;;;;;8.10;45.07;101409.59;146605;599;46020;-71
2022/01/29 04:39:54;;;;;;;;;5.00;4.00;;;;;8.12;44.58;101425.19;146606;585;47010;-70
2022/01/29 04:42:47;;;;;;;;;10.50;10.50;;;;;8.13;45.17;101406.34;146608;590;45021;-70
2022/01/29 04:45:39;;;;;;;;;6.00;5.00;;;;;8.16;43.76;101423.72;146598;593;46010;-71
2022/01/29 04:48:32;;;;;;;;;6.25;6.00;;;;;8.16;43.51;101405.63;146605;579;46021;-71
2022/01/29 04:51:24;;;;;;;;;7.75;6.25;;;;;8.15;44.33;101411.59;146597;647;46016;-70
2022/01/29 04:54:16;;;;;;;;;7.00;7.00;;;;;8.13;45.21;101410.56;146601;661;46020;-71
2022/01/29 04:57:09;;;;;;;;;5.00;5.00;;;;;8.12;45.29;101412.25;146599;605;46017;-72
2022/01/29 05:00:01;;;;;;;;;7.25;5.25;;;;;8.08;43.93;101418.91;146600;638;47008;-76
2022/01/29 05:02:58;;;;;;;;;14.50;13.75;;;;;8.08;44.63;101411.16;146599;631;46917;-73
2022/01/29 05:05:50;;;;;;;;;9.25;8.00;;;;;8.08;45.63;101429.22;146601;633;47008;-73
2022/01/29 05:08:43;;;;;;;;;6.25;6.00;;;;;8.07;45.72;101426.56;146599;578;46016;-70
2022/01/29 05:11:35;;;;;;;;;4.25;3.75;;;;;8.05;45.61;101430.69;146602;590;47008;-70
2022/01/29 05:14:42;;;;;;;;;5.25;5.25;;;;;8.02;45.54;101428.78;146599;615;46016;-71
2022/01/29 05:27:07;;;;;;;;;4.00;3.00;;;;;8.06;44.73;101433.37;146596;563;47010;-73
2022/01/29 05:29:59;;;;;;;;;4.50;3.25;;;;;8.06;43.92;101446.28;146600;569;47008;-70
2022/01/29 05:32:51;;;;;;;;;3.00;1.75;;;;;8.06;44.30;101442.81;146597;639;47010;-72
2022/01/29 05:35:44;;;;;;;;;3.50;3.00;;;;;8.09;45.43;101456.84;146601;575;47008;-71
2022/01/29 05:38:37;;;;;;;;;6.00;5.50;;;;;8.08;44.99;101444.72;146599;647;46016;-72
2022/01/29 05:41:29;;;;;;;;;7.25;5.00;;;;;8.08;45.84;101451.59;146598;570;46916;-72
2022/01/29 05:44:21;;;;;;;;;3.00;3.00;;;;;8.07;46.47;101465.28;146599;591;46917;-72
2022/01/29 05:47:13;;;;;;;;;8.00;6.00;;;;;8.05;47.57;101472.03;146606;582;46020;-72
2022/01/29 05:50:07;;;;;;;;;7.00;6.25;;;;;8.00;48.30;101450.13;146602;577;47010;-73
2022/01/29 05:52:59;;;;;;;;;6.00;6.00;;;;;7.95;49.09;101482.47;146605;573;46020;-77
2022/01/29 05:55:51;;;;;;;;;14.25;11.50;;;;;7.93;49.05;101496.94;146602;637;46019;-74
2022/01/29 05:58:43;;;;;;;;;11.25;8.00;;;;;7.87;50.94;101502.53;146604;672;47012;-76
2022/01/29 06:01:36;;;;;;;;;13.00;10.75;;;;;7.80;50.89;101518.37;146600;597;46016;-75
2022/01/29 06:04:28;;;;;;;;;21.50;21.50;;;;;7.73;51.06;101527.34;146604;573;46021;-71
2022/01/29 06:07:20;;;;;;;;;12.00;12.00;;;;;7.68;51.94;101526.09;146602;631;46016;-71
2022/01/29 06:10:13;;;;;;;;;8.50;8.50;;;;;7.65;51.05;101523.28;146608;571;45915;-71
2022/01/29 06:13:16;;;;;;;;;9.00;8.00;;;;;7.61;51.49;101536.75;146603;630;46917;-72
2022/01/29 06:16:09;;;;;;;;;20.75;18.50;;;;;7.61;52.68;101537.63;146604;575;46020;-70
2022/01/29 06:19:01;;;;;;;;;10.75;9.00;;;;;7.58;50.96;101526.19;146604;594;46025;-73
2022/01/29 06:21:53;;;;;;;;;11.00;11.00;;;;;7.56;51.21;101525.16;146604;560;45020;-73
2022/01/29 06:24:46;;;;;;;;;8.25;8.25;;;;;7.53;50.46;101532.66;146602;736;47010;-79
2022/01/29 06:27:38;;;;;;;;;11.00;10.00;;;;;7.52;51.15;101523.12;146602;636;46021;-73
2022/01/29 06:30:30;;;;;;;;;9.25;8.25;;;;;7.49;50.53;101516.06;146604;563;46016;-69
2022/01/29 06:33:23;;;;;;;;;2.50;2.50;;;;;7.49;49.67;101520.31;146605;669;47010;-69
2022/01/29 06:36:15;;;;;;;;;6.75;6.75;;;;;7.48;50.21;101527.16;146605;609;46010;-69
2022/01/29 06:39:07;;;;;;;;;7.25;6.50;;;;;7.51;50.61;101521.34;146605;601;46009;-74
2022/01/29 06:41:59;;;;;;;;;8.00;8.00;;;;;7.52;50.62;101516.28;146603;746;46010;-71
2022/01/29 06:44:51;;;;;;;;;6.00;6.00;;;;;7.53;51.43;101515.50;146603;572;46008;-74
2022/01/29 06:47:44;;;;;;;;;14.25;9.25;;;;;7.59;50.60;101517.66;146603;642;46016;-73
2022/01/29 06:50:37;;;;;;;;;6.25;4.50;;;;;7.57;50.78;101511.47;146603;587;46020;-74
2022/01/29 06:53:29;;;;;;;;;6.50;6.50;;;;;7.61;51.04;101518.69;146603;594;46010;-68
2022/01/29 06:56:21;;;;;;;;;4.00;4.00;;;;;7.63;50.48;101527.41;146601;609;47007;-67
2022/01/29 06:59:13;;;;;;;;;8.25;8.25;;;;;7.63;51.07;101512.84;146601;605;47008;-69
2022/01/29 07:02:06;;;;;;;;;15.75;13.50;;;;;7.68;49.91;101526.09;146607;657;46008;-71
2022/01/29 07:04:58;;;;;;;;;11.50;8.50;;;;;7.74;50.32;101528.25;146604;606;46012;-83
2022/01/29 07:07:50;;;;;;;;;5.75;4.75;;;;;7.80;50.69;101516.69;146606;793;46008;-68
2022/01/29 07:10:44;;;;;;;;;4.75;4.25;;;;;7.81;49.66;101522.75;146605;619;47010;-68
2022/01/29 07:13:36;;;;;;;;;7.00;5.75;;;;;7.84;49.40;101518.69;146604;578;46020;-68
2022/01/29 07:16:29;;;;;;;;;7.00;7.00;;;;;7.86;49.34;101498.19;146603;592;46030;-69
2022/01/29 07:19:21;;;;;;;;;5.00;3.75;;;;;7.85;49.42;101504.13;146603;590;46020;-67
2022/01/29 07:22:13;;;;;;;;;7.50;5.50;;;;;7.88;49.96;101517.25;146601;643;47010;-68
2022/01/29 07:25:05;;;;;;;;;8.50;6.75;;;;;7.89;50.47;101529.38;146604;603;46021;-72
2022/01/29 07:27:57;;;;;;;;;5.50;5.50;;;;;7.96;50.27;101526.47;146603;582;46016;-69
2022/01/29 07:30:49;;;;;;;;;5.50;5.50;;;;;8.07;50.34;101514.38;146606;564;47009;-70
2022/01/29 07:33:42;;;;;;;;;6.75;4.75;;;;;8.16;50.26;101529.63;146606;563;46016;-70
2022/01/29 07:36:34;;;;;;;;;5.25;5.00;;;;;8.20;49.88;101529.09;146604;647;46020;-70
2022/01/29 07:39:27;;;;;;;;;6.75;6.00;;;;;8.22;49.06;101536.13;146605;576;47010;-70
2022/01/29 07:42:19;;;;;;;;;10.25;7.75;;;;;8.23;49.33;101539.66;146604;581;46020;-70
2022/01/29 07:45:12;;;;;;;;;8.50;8.50;;;;;7.90;50.31;101492.44;146604;598;47012;-70
2022/01/29 07:48:04;;;;;;;;;7.50;6.50;;;;;8.15;48.60;101530.41;146603;564;46008;-68
2022/01/29 07:50:57;;;;;;;;;6.75;6.75;;;;;8.17;50.21;101532.34;146604;570;46917;-70
2022/01/29 07:53:49;;;;;;;;;5.50;5.50;;;;;8.24;48.84;101541.44;146605;575;46021;-71
2022/01/29 07:56:41;;;;;;;;;7.00;7.00;;;;;8.26;47.77;101537.28;146602;569;47010;-73
2022/01/29 07:59:33;;;;;;;;;6.25;6.25;;;;;8.22;47.99;101543.88;146605;569;46020;-70
2022/01/29 08:02:25;;;;;;;;;4.25;4.25;;;;;8.21;48.15;101543.78;146604;622;46013;-71
2022/01/29 08:05:18;;;;;;;;;7.00;7.00;;;;;8.22;48.05;101537.81;146607;624;46020;-71
2022/01/29 08:08:10;;;;;;;;;5.75;5.50;;;;;8.20;48.18;101550.66;146604;550;46017;-70
2022/01/29 08:11:02;;;;;;;;;5.25;5.25;;;;;8.16;48.19;101533.12;146608;631;46020;-70
2022/01/29 08:13:55;;;;;;;;;4.25;3.00;;;;;8.15;47.94;101541.66;146602;628;46030;-70
2022/01/29 08:16:47;;;;;;;;;1.75;1.75;;;;;8.07;48.21;101547.94;146605;589;46020;-70
2022/01/29 08:19:39;;;;;;;;;5.75;4.75;;;;;8.05;48.29;101539.19;146598;569;46012;-70
2022/01/29 08:22:32;;;;;;;;;3.25;3.25;;;;;8.04;48.21;101537.38;146605;639;46020;-69
2022/01/29 08:25:24;;;;;;;;;6.00;5.00;;;;;8.03;48.88;101559.72;146605;565;46016;-70
2022/01/29 08:28:16;;;;;;;;;8.75;8.00;;;;;8.03;48.94;101543.31;146604;600;47008;-70
2022/01/29 08:31:09;;;;;;;;;8.75;7.75;;;;;8.03;48.73;101530.41;146604;652;46010;-70
2022/01/29 08:34:01;;;;;;;;;9.75;9.50;;;;;8.06;48.17;101556.47;146603;630;46020;-70
2022/01/29 08:36:54;;;;;;;;;8.75;7.00;;;;;8.05;48.28;101560.72;146605;575;46013;-70
2022/01/29 08:39:46;;;;;;;;;5.00;5.00;;;;;8.05;48.52;101558.16;146604;573;47008;-70
2022/01/29 08:42:38;;;;;;;;;9.25;8.25;;;;;8.08;48.86;101567.81;146605;569;46917;-71
2022/01/29 08:45:30;;;;;;;;;6.75;6.75;;;;;8.09;49.10;101556.69;146606;595;45051;-71
2022/01/29 08:48:23;;;;;;;;;5.25;5.25;;;;;8.14;49.00;101554.47;146600;615;46917;-69
2022/01/29 08:51:15;;;;;;;;;17.00;17.00;;;;;8.17;48.77;101577.94;146605;595;46020;-70
2022/01/29 08:54:08;;;;;;;;;3.00;3.00;;;;;8.19;48.83;101563.44;146603;606;46016;-69
2022/01/29 08:57:00;;;;;;;;;21.00;19.00;;;;;8.19;49.79;101569.50;146606;569;46008;-71
2022/01/29 08:59:53;;;;;;;;;9.75;7.50;;;;;8.21;49.45;101574.78;146601;598;46017;-69
2022/01/29 09:02:45;;;;;;;;;5.75;3.00;;;;;8.26;48.52;101565.72;146608;591;46008;-70
2022/01/29 09:05:38;;;;;;;;;14.50;12.25;;;;;8.28;49.10;101564.12;146601;570;46016;-71
2022/01/29 09:08:30;;;;;;;;;6.75;5.75;;;;;8.26;48.52;101560.53;146606;569;47008;-70
2022/01/29 09:11:23;;;;;;;;;5.75;4.00;;;;;8.24;48.56;101563.00;146606;641;46016;-69
2022/01/29 09:14:16;;;;;;;;;6.75;4.00;;;;;8.24;48.28;101569.84;146601;617;47008;-70
2022/01/29 09:17:08;;;;;;;;;9.50;8.00;;;;;8.25;48.53;101569.06;146604;630;46012;-70
2022/01/29 09:20:00;;;;;;;;;33.00;31.75;;;;;8.22;48.20;101574.88;146606;586;46020;-70
2022/01/29 09:22:53;;;;;;;;;5.25;5.25;;;;;8.18;47.64;101600.41;146606;651;46016;-70
2022/01/29 09:25:46;;;;;;;;;27.00;25.25;;;;;8.19;48.33;101597.00;146602;706;46020;-69
2022/01/29 09:28:38;;;;;;;;;51.50;40.75;;;;;8.18;48.32;101596.13;146605;578;46917;-70
2022/01/29 09:31:30;;;;;;;;;60.00;45.00;;;;;8.19;48.36;101594.44;146605;611;46021;-70
2022/01/29 09:34:23;;;;;;;;;93.00;80.00;;;;;8.18;48.57;101598.72;146604;564;46016;-70
2022/01/29 09:37:15;;;;;;;;;8.50;7.50;;;;;8.10;48.19;101576.59;146612;623;47008;-70
2022/01/29 09:40:07;;;;;;;;;5.75;5.25;;;;;8.14;48.28;101596.69;146598;620;47917;-72
2022/01/29 09:43:01;;;;;;;;;8.00;7.75;;;;;8.14;48.01;101588.94;146603;569;46020;-70
2022/01/29 09:45:57;;;;;;;;;13.25;11.50;;;;;8.15;48.94;101587.25;146596;579;47011;-72
2022/01/29 09:48:50;;;;;;;;;11.50;10.75;;;;;8.14;48.82;101581.19;146603;622;46020;-70
2022/01/29 09:51:43;;;;;;;;;10.75;9.00;;;;;8.11;48.43;101580.97;146600;591;46011;-69
2022/01/29 09:54:35;;;;;;;;;9.75;9.75;;;;;8.06;48.38;101580.59;146601;566;46021;-70
2022/01/29 09:57:27;;;;;;;;;8.25;7.75;;;;;8.04;49.40;101589.03;146596;596;46012;-70
2022/01/29 10:00:21;;;;;;;;;10.00;9.00;;;;;7.98;49.18;101584.31;146603;571;46021;-69
2022/01/29 10:03:21;;;;;;;;;37.75;31.50;;;;;7.93;50.26;101589.91;146597;576;46016;-71
2022/01/29 10:06:19;;;;;;;;;30.50;29.75;;;;;7.89;50.12;101582.72;146602;601;46020;-68
2022/01/29 10:09:12;;;;;;;;;10.75;8.25;;;;;7.87;50.66;101591.22;146597;636;46016;-69
2022/01/29 10:12:21;;;;;;;;;8.00;7.00;;;;;7.82;50.57;101592.59;146603;664;46020;-70
2022/01/29 10:15:13;;;;;;;;;6.75;6.75;;;;;7.79;52.77;101587.19;146597;635;47010;-69
2022/01/29 10:18:06;;;;;;;;;9.50;8.25;;;;;7.76;53.45;101592.13;146601;651;46020;-68
2022/01/29 10:21:14;;;;;;;;;8.75;8.75;;;;;7.75;52.23;101584.25;146597;570;46011;-71
2022/01/29 10:24:12;;;;;;;;;7.00;4.75;;;;;7.74;54.19;101588.50;146601;614;47008;-70
2022/01/29 10:27:10;;;;;;;;;11.75;11.00;;;;;7.75;54.17;101579.97;146600;576;45917;-71
2022/01/29 10:30:04;;;;;;;;;10.75;10.75;;;;;7.78;53.71;101582.78;146600;574;46020;-70
2022/01/29 10:32:56;;;;;;;;;28.50;25.00;;;;;7.81;53.99;101585.59;146597;581;46018;-71
2022/01/29 10:35:50;;;;;;;;;13.25;11.00;;;;;7.84;53.66;101575.50;146602;577;46020;-71
2022/01/29 10:39:00;;;;;;;;;49.00;36.00;;;;;7.95;52.85;101578.03;146599;566;46010;-72
2022/01/29 10:41:52;;;;;;;;;19.75;17.00;;;;;8.02;53.05;101575.09;146598;572;47008;-71
2022/01/29 10:44:50;;;;;;;;;16.75;16.75;;;;;8.12;52.54;101585.34;146603;593;46011;-69
2022/01/29 10:48:03;;;;;;;;;8.00;7.50;;;;;8.20;51.17;101581.66;146606;589;46020;-72
2022/01/29 10:51:14;;;;;;;;;24.25;24.00;;;;;8.28;52.58;101569.28;146601;593;47010;-72
2022/01/29 10:54:20;;;;;;;;;27.25;24.50;;;;;8.38;52.36;101565.69;146603;599;46020;-70
2022/01/29 10:57:15;;;;;;;;;12.00;10.75;;;;;8.42;53.54;101557.44;146599;630;46010;-71
2022/01/29 11:00:31;;;;;;;;;12.00;10.75;;;;;8.48;51.98;101551.00;146606;566;46020;-72
2022/01/29 11:03:23;;;;;;;;;16.25;15.75;;;;;8.50;51.74;101554.63;146600;565;46015;-72
2022/01/29 11:06:20;;;;;;;;;22.00;20.00;;;;;8.57;51.38;101558.53;146605;583;45021;-69
2022/01/29 11:09:12;;;;;;;;;14.25;12.00;;;;;8.62;51.88;101554.59;146602;581;46917;-71
2022/01/29 11:12:09;;;;;;;;;50.00;40.00;;;;;8.65;52.50;101556.50;146603;573;46020;-72
2022/01/29 11:15:05;;;;;;;;;30.25;26.00;;;;;8.66;52.59;101537.59;146600;632;47010;-71
2022/01/29 11:17:57;;;;;;;;;21.25;19.25;;;;;8.70;52.08;101545.69;146605;609;46020;-71
2022/01/29 11:20:50;;;;;;;;;27.00;26.25;;;;;8.73;51.58;101545.94;146603;606;46016;-71
2022/01/29 11:23:46;;;;;;;;;24.00;22.25;;;;;8.77;52.49;101539.28;146602;565;46021;-71
2022/01/29 11:26:41;;;;;;;;;19.00;17.00;;;;;8.77;50.74;101554.78;146605;635;46029;-71
2022/01/29 11:29:38;;;;;;;;;64.25;49.00;;;;;8.78;50.77;101549.75;146607;599;45021;-71
2022/01/29 11:32:33;;;;;;;;;56.25;42.50;;;;;8.79;51.16;101551.53;146601;625;46029;-73
2022/01/29 11:35:35;;;;;;;;;31.75;28.75;;;;;8.82;51.60;101557.72;146605;595;46020;-72
2022/01/29 11:38:35;;;;;;;;;21.50;17.50;;;;;8.81;51.45;101542.97;146600;622;46034;-73
2022/01/29 11:41:28;;;;;;;;;21.00;20.00;;;;;8.81;52.12;101553.31;146606;650;46020;-74
2022/01/29 11:44:30;;;;;;;;;21.50;19.50;;;;;8.77;52.34;101554.78;146602;648;46012;-74
2022/01/29 11:47:51;;;;;;;;;23.25;20.75;;;;;7.50;52.76;101318.25;146607;651;46008;-73
2022/01/29 11:50:48;;;;;;;;;20.50;17.75;;;;;8.70;53.15;101537.94;146599;588;46024;-72
2022/01/29 11:54:09;;;;;;;;;24.00;22.00;;;;;7.38;53.46;101303.69;146605;606;46020;-74
2022/01/29 11:57:14;;;;;;;;;21.50;20.00;;;;;8.55;54.25;101519.62;146603;608;46016;-74
2022/01/29 12:00:40;;;;;;;;;18.75;17.75;;;;;8.44;55.04;101519.66;146606;642;47008;-73
2022/01/29 12:03:58;;;;;;;;;23.00;22.50;;;;;7.02;56.09;101299.28;146601;625;46016;-73
2022/01/29 12:07:16;;;;;;;;;37.75;31.50;;;;;8.18;56.40;101516.03;146605;590;46009;-72
2022/01/29 12:10:17;;;;;;;;;28.50;24.50;;;;;8.08;57.03;101517.06;146602;658;46016;-74
2022/01/29 12:13:15;;;;;;;;;27.75;24.00;;;;;8.03;58.40;101512.31;146600;631;46020;-72
2022/01/29 12:16:09;;;;;;;;;23.75;23.25;;;;;7.95;58.18;101509.19;146602;564;46016;-72
2022/01/29 12:19:02;;;;;;;;;23.00;21.00;;;;;7.89;57.88;101508.72;146606;587;46008;-72
2022/01/29 12:21:54;;;;;;;;;21.00;21.00;;;;;7.85;58.25;101511.87;146600;577;46011;-73
2022/01/29 12:24:54;;;;;;;;;32.00;29.25;;;;;7.79;59.13;101504.56;146608;593;45047;-72
2022/01/29 12:27:57;;;;;;;;;20.25;17.00;;;;;7.75;59.36;101506.78;146602;644;46017;-72
2022/01/29 12:30:50;;;;;;;;;26.00;23.00;;;;;7.69;59.83;101501.16;146598;584;47915;-72
2022/01/29 12:33:42;;;;;;;;;18.00;16.25;;;;;7.63;59.69;101504.19;146604;702;46026;-72
2022/01/29 12:36:37;;;;;;;;;22.25;20.25;;;;;7.58;60.21;101493.53;146605;629;46021;-73
2022/01/29 12:39:31;;;;;;;;;24.00;21.25;;;;;7.52;60.56;101493.06;146599;585;47012;-72
2022/01/29 12:42:30;;;;;;;;;20.25;19.25;;;;;7.46;60.68;101496.88;146602;573;46020;-73
2022/01/29 12:45:25;;;;;;;;;31.75;25.75;;;;;7.40;61.35;101487.87;146602;567;47010;-72
2022/01/29 12:48:18;;;;;;;;;26.25;25.00;;;;;7.32;61.90;101494.16;146606;593;46008;-72
2022/01/29 12:51:13;;;;;;;;;33.00;29.00;;;;;7.29;61.20;101487.81;146599;593;46016;-73
2022/01/29 12:54:09;;;;;;;;;37.25;29.50;;;;;7.27;61.85;101482.56;146606;583;46027;-71
2022/01/29 12:57:01;;;;;;;;;27.50;25.50;;;;;7.24;63.37;101499.50;146604;573;46010;-72
2022/01/29 12:59:53;;;;;;;;;26.00;23.50;;;;;7.22;62.16;101498.47;146605;604;46008;-72
2022/01/29 13:02:45;;;;;;;;;31.00;28.00;;;;;7.20;63.80;101512.94;146600;657;47012;-72
2022/01/29 13:05:48;;;;;;;;;23.50;20.25;;;;;7.20;63.04;101494.87;146606;595;46020;-73
2022/01/29 13:08:40;;;;;;;;;28.00;27.25;;;;;7.16;63.64;101504.03;146601;602;46016;-73
2022/01/29 13:11:33;;;;;;;;;27.25;22.75;;;;;7.16;64.41;101493.72;146603;608;46020;-72
2022/01/29 13:14:25;;;;;;;;;26.50;25.75;;;;;7.13;64.62;101502.16;146600;644;46016;-72
2022/01/29 13:17:19;;;;;;;;;42.75;35.25;;;;;7.12;64.66;101499.44;146602;569;46020;-71
2022/01/29 13:20:15;;;;;;;;;34.50;30.50;;;;;7.12;65.33;101499.44;146603;621;46918;-72
2022/01/29 13:23:08;;;;;;;;;30.50;28.25;;;;;7.12;63.40;101497.75;146604;622;46020;-72
2022/01/29 13:26:00;;;;;;;;;26.00;23.00;;;;;7.16;64.25;101498.88;146605;598;46013;-72
2022/01/29 13:29:08;;;;;;;;;24.75;22.75;;;;;7.19;63.65;101499.13;146607;650;46021;-72
2022/01/29 13:32:00;;;;;;;;;20.25;18.75;;;;;7.21;64.30;101499.25;146602;604;46010;-72
2022/01/29 13:34:52;;;;;;;;;29.50;26.50;;;;;7.23;64.63;101501.19;146606;583;46008;-73
2022/01/29 13:37:45;;;;;;;;;22.75;22.50;;;;;7.17;64.96;101501.59;146603;569;46012;-72